Terminal Aerodrome Forecast
Issued by NWS

Home | Current Version | Previous Version | Text Only | Print | Product List | Glossary On
Versions: 1 2 3 4 5 6 7 8 9 10 11 12 13 14 15 16 17 18
000
FTUS44 KLZK 292257 AAB
TAFHRO
TAF AMD
KHRO 292257Z 2923/3018 VRB05KT P6SM VCTS SCT050CB BKN100
      TEMPO 2923/2924 VRB15G30KT 5SM -TSRA BR BKN025CB
     FM300000 VRB04KT P6SM SCT040 BKN250
      TEMPO 3009/3013 3SM BR
     FM301500 12004KT P6SM BKN040 OVC250=

USA.gov is the U.S. government's official web portal to all federal, state and local government web resources and services.